Latest Weather Observations for Dubbo

IDN60801

Issued at 10:32 am EDT Monday 27 February 2017 (issued every 30 minutes, with the page automatically refreshed every 10 minutes)

About weather observations | Map of weather stations | Latest weather observations for NSW | Other Formats
Station Details ID: 065070 Name: DUBBO AIRPORT AWS Lat: -32.22 Lon: 148.58 Height: 284.0 m
Data from the previous 72 hours. | See also: Recent months at Dubbo
Date/Time
EDT
Temp
°C
App
Temp
°C
Dew
Point
°C
Rel
Hum
%
Delta-T
°C
Wind Press
QNH
hPa
Press
MSL
hPa
Rain since
9am
mm
Dir  Spd
km/h
Gust
km/h
Spd
kts
Gust
kts
27/10:30am 25.3 20.4 13.8 49 6.8 NE 32 41 17 22 1022.4 1020.9 0.0
27/10:00am 23.9 19.8 13.7 53 6.0 NE 28 37 15 20 1022.4 1020.9 0.0
27/09:30am 22.5 18.7 13.6 57 5.2 NE 26 35 14 19 1022.7 1021.2 0.0
27/09:00am 21.4 18.7 13.6 61 4.5 ENE 20 32 11 17 1022.7 1021.2 0.0
27/08:30am 19.2 17.5 12.5 65 3.8 E 13 17 7 9 1022.6 1021.1 0.0
27/08:00am 17.2 15.6 11.7 70 3.0 ENE 11 15 6 8 1022.4 1020.9 0.0
27/07:30am 15.5 13.9 11.7 78 2.1 E 11 13 6 7 1021.9 1020.4 0.0
27/07:00am 13.8 11.9 10.4 80 1.8 E 11 13 6 7 1021.6 1020.1 0.0
27/06:30am 14.5 11.9 10.7 78 2.0 ESE 15 17 8 9 1021.3 1019.8 0.0
27/06:00am 14.5 12.2 10.5 77 2.1 ESE 13 17 7 9 1021.2 1019.7 0.0
27/05:30am 15.1 12.7 10.1 72 2.6 ESE 13 17 7 9 1020.9 1019.4 0.0
27/05:00am 16.0 12.9 10.3 69 3.0 ESE 17 20 9 11 1020.6 1019.1 0.0
27/04:30am 16.0 12.5 10.1 68 3.1 ESE 19 24 10 13 1020.5 1019.0 0.0
27/04:00am 16.5 13.8 10.4 67 3.3 E 15 19 8 10 1020.7 1019.2 0.0
27/03:30am 16.7 14.0 10.3 66 3.4 E 15 19 8 10 1021.1 1019.6 0.0
27/03:00am 17.2 14.2 10.6 65 3.6 E 17 20 9 11 1021.1 1019.6 0.0
27/02:30am 17.4 15.2 10.8 65 3.6 ENE 13 17 7 9 1021.2 1019.7 0.0
27/02:00am 18.4 15.1 11.0 62 4.1 ENE 19 26 10 14 1021.1 1019.6 0.0
27/01:30am 18.6 15.8 11.2 62 4.1 ENE 17 24 9 13 1021.2 1019.7 0.0
27/01:00am 19.1 15.7 11.2 60 4.4 ENE 20 28 11 15 1021.2 1019.7 0.0
27/12:30am 19.5 16.1 11.3 59 4.6 ENE 20 26 11 14 1021.1 1019.6 0.0
27/12:00am 19.9 16.5 11.4 58 4.7 ENE 20 30 11 16 1021.1 1019.6 0.0
 
Date/Time
EDT
Temp
°C
App
Temp
°C
Dew
Point
°C
Rel
Hum
%
Delta-T
°C
Wind Press
QNH
hPa
Press
MSL
hPa
Rain since
9am
mm
Dir  Spd
km/h
Gust
km/h
Spd
kts
Gust
kts
26/11:30pm 20.4 16.0 11.6 57 4.9 ENE 26 35 14 19 1021.0 1019.5 0.0
26/11:00pm 20.8 15.9 11.4 55 5.3 ENE 28 37 15 20 1020.9 1019.4 0.0
26/10:30pm 21.2 15.9 11.2 53 5.6 ENE 30 43 16 23 1020.5 1019.0 0.0
26/10:13pm 21.6 15.7 11.3 52 5.8 ENE 33 52 18 28 1020.2 1018.7 0.0
26/10:00pm 21.8 15.9 11.2 51 5.9 ENE 33 44 18 24 1019.9 1018.3 0.0
26/09:47pm 22.2 16.3 11.3 50 6.1 ENE 33 56 18 30 1019.5 1018.0 0.0
26/09:30pm 22.6 16.4 11.4 49 6.3 ENE 35 48 19 26 1019.3 1017.8 0.0
26/09:00pm 23.6 17.7 11.3 46 7.0 ENE 33 44 18 24 1018.9 1017.4 0.0
26/08:30pm 24.9 19.7 11.5 43 7.7 ENE 30 41 16 22 1018.2 1016.7 0.0
26/08:00pm 25.8 21.1 10.8 39 8.5 ENE 26 37 14 20 1017.8 1016.3 0.0
26/07:30pm 26.9 22.4 10.2 35 9.4 E 24 35 13 19 1017.2 1015.7 0.0
26/07:00pm 27.8 23.6 9.6 32 10.2 ENE 22 32 12 17 1016.9 1015.3 0.0
26/06:30pm 28.5 23.5 9.7 31 10.6 ENE 26 39 14 21 1016.8 1015.2 0.0
26/06:00pm 29.6 25.3 9.2 28 11.5 ENE 22 33 12 18 1016.6 1015.0 0.0
26/05:30pm 29.7 24.8 9.8 29 11.3 ENE 26 35 14 19 1016.6 1015.0 0.0
26/05:00pm 29.6 25.4 9.7 29 11.3 ENE 22 35 12 19 1016.8 1015.2 0.0
26/04:30pm 30.6 26.8 11.1 30 11.4 E 22 32 12 17 1016.9 1015.3 0.0
26/04:00pm 30.5 26.3 11.0 30 11.3 E 24 35 13 19 1017.0 1015.4 0.0
26/03:30pm 29.8 25.5 10.9 31 11.0 NE 24 33 13 18 1017.2 1015.7 0.0
26/03:00pm 30.4 26.4 11.9 32 10.9 NE 24 37 13 20 1017.4 1015.9 0.0
26/02:30pm 30.2 26.2 11.7 32 10.9 ENE 24 41 13 22 1017.9 1016.4 0.0
26/02:00pm 30.7 27.2 12.1 32 11.0 NE 22 30 12 16 1018.3 1016.8 0.0
26/01:30pm 30.0 25.4 12.4 34 10.5 NE 28 39 15 21 1018.7 1017.2 0.0
26/01:00pm 29.3 25.1 12.3 35 10.0 NE 26 39 14 21 1019.1 1017.6 0.0
26/12:30pm 29.0 24.4 12.4 36 9.8 NE 28 37 15 20 1019.3 1017.8 0.0
26/12:00pm 27.6 22.7 12.4 39 8.9 NE 30 41 16 22 1019.5 1018.0 0.0
26/11:30am 28.0 23.4 13.5 41 8.7 NE 30 41 16 22 1019.7 1018.1 0.0
26/11:00am 26.7 21.5 12.7 42 8.2 NE 32 43 17 23 1019.8 1018.2 0.0
26/10:30am 26.3 21.3 13.4 45 7.7 ENE 32 44 17 24 1019.7 1018.1 0.0
26/10:00am 25.1 21.0 13.9 49 6.7 ENE 28 41 15 22 1019.8 1018.2 0.0
26/09:30am 24.0 19.1 13.8 53 6.0 ENE 32 44 17 24 1019.7 1018.1 0.0
26/09:00am 22.8 18.7 13.8 57 5.3 ENE 28 35 15 19 1019.7 1018.1 0.4
26/08:30am 21.5 18.6 13.9 62 4.5 ENE 22 32 12 17 1019.3 1017.8 0.4
26/08:00am 20.3 17.4 14.0 67 3.7 E 22 32 12 17 1019.4 1017.9 0.4
26/07:30am 19.1 16.5 13.9 72 3.0 ENE 20 28 11 15 1019.0 1017.5 0.4
26/07:00am 18.5 15.5 13.8 74 2.7 ENE 22 30 12 16 1018.2 1016.7 0.4
26/06:30am 18.7 16.2 14.0 74 2.7 ENE 20 30 11 16 1017.7 1016.2 0.4
26/06:00am 18.8 16.3 14.1 74 2.7 E 20 32 11 17 1017.5 1016.0 0.4
26/05:30am 18.8 15.9 14.1 74 2.7 E 22 33 12 18 1017.1 1015.6 0.4
26/05:00am 18.8 16.9 14.3 75 2.6 E 17 22 9 12 1016.9 1015.3 0.4
26/04:30am 18.5 16.3 14.4 77 2.4 E 19 22 10 12 1016.7 1015.1 0.4
26/04:00am 19.5 17.3 14.5 73 2.9 ENE 19 26 10 14 1016.7 1015.1 0.4
26/03:30am 19.9 17.6 14.7 72 3.1 ENE 20 28 11 15 1016.9 1015.3 0.4
26/03:00am 19.6 17.5 14.6 73 2.9 ENE 19 24 10 13 1017.2 1015.7 0.4
26/02:30am 19.4 18.0 14.6 74 2.8 E 15 24 8 13 1017.4 1015.9 0.4
26/02:00am 19.4 17.0 14.4 73 2.9 E 20 26 11 14 1017.3 1015.8 0.4
26/01:30am 20.3 16.5 14.7 70 3.3 ENE 28 41 15 22 1017.5 1016.0 0.4
26/01:00am 20.1 16.3 14.7 71 3.2 E 28 39 15 21 1017.7 1016.2 0.4
26/12:30am 19.9 17.2 14.7 72 3.1 E 22 30 12 16 1017.8 1016.3 0.4
26/12:00am 19.8 16.7 14.6 72 3.1 ENE 24 32 13 17 1017.7 1016.2 0.4
 
Date/Time
EDT
Temp
°C
App
Temp
°C
Dew
Point
°C
Rel
Hum
%
Delta-T
°C
Wind Press
QNH
hPa
Press
MSL
hPa
Rain since
9am
mm
Dir  Spd
km/h
Gust
km/h
Spd
kts
Gust
kts
25/11:30pm 19.9 17.2 14.7 72 3.1 E 22 30 12 16 1017.5 1016.0 0.4
25/11:00pm 20.2 18.1 14.8 71 3.2 E 19 30 10 16 1017.2 1015.7 0.4
25/10:30pm 20.9 17.6 15.0 69 3.5 ENE 26 35 14 19 1016.4 1014.8 0.4
25/10:00pm 21.2 18.4 15.3 69 3.5 E 24 37 13 20 1016.6 1015.0 0.4
25/09:30pm 21.1 18.4 15.6 71 3.3 NE 24 35 13 19 1015.5 1014.0 0.4
25/09:00pm 21.2 18.0 16.2 73 3.0 ENE 28 37 15 20 1015.3 1013.8 0.4
25/08:30pm 21.4 16.5 16.4 73 3.1 ENE 37 48 20 26 1015.2 1013.7 0.4
25/08:05pm 21.8 17.3 16.5 72 3.3 ENE 35 54 19 29 1014.6 1013.1 0.2
25/08:00pm 22.2 17.7 16.5 70 3.5 E 35 50 19 27 1014.9 1013.4 0.0
25/07:46pm 24.9 21.0 15.5 56 5.7 E 30 43 16 23 1015.0 1013.5 0.0
25/07:30pm 26.5 21.0 14.6 48 7.2 ENE 37 56 20 30 1014.1 1012.6 0.0
25/07:12pm 29.2 24.7 13.8 39 9.3 ENE 30 48 16 26 1013.5 1011.9 0.0
25/07:00pm 30.5 25.7 12.9 34 10.6 ENE 30 39 16 21 1013.2 1011.6 0.0
25/06:30pm 32.1 29.6 12.3 29 11.9 ENE 17 24 9 13 1012.8 1011.2 0.0
25/06:00pm 32.9 31.4 12.0 28 12.5 NE 11 19 6 10 1012.5 1010.9 0.0
25/05:30pm 33.5 29.9 11.9 27 12.9 ENE 22 30 12 16 1012.7 1011.1 0.0
25/05:00pm 33.6 32.0 10.2 24 13.7 E 9 17 5 9 1012.9 1011.3 0.0
25/04:30pm 33.6 30.3 10.9 25 13.4 ENE 19 26 10 14 1013.2 1011.6 0.0
25/04:00pm 33.6 31.4 10.9 25 13.4 SE 13 24 7 13 1013.5 1011.9 0.0
25/03:30pm 34.5 33.9 12.2 26 13.5 NW 7 17 4 9 1014.1 1012.6 0.0
25/03:00pm 32.0 29.9 11.2 28 12.2 ENE 13 19 7 10 1014.6 1013.1 0.0
25/02:30pm 33.4 31.5 11.9 27 12.9 NE 13 22 7 12 1015.0 1013.5 0.0
25/02:00pm 32.9 31.6 12.5 29 12.3 ENE 11 22 6 12 1015.4 1013.9 0.0
25/01:30pm 32.2 29.5 12.9 31 11.7 ENE 19 28 10 15 1016.1 1014.5 0.0
25/01:00pm 31.8 29.5 13.1 32 11.3 E 17 28 9 15 1016.3 1014.7 0.0
25/12:30pm 31.4 28.8 13.2 33 11.0 NE 19 32 10 17 1016.7 1015.1 0.0
25/12:00pm 30.4 27.4 13.7 36 10.1 NE 22 32 12 17 1017.1 1015.6 0.0
25/11:30am 29.4 26.1 14.0 39 9.4 NE 24 32 13 17 1017.7 1016.2 0.0
25/11:00am 29.0 24.7 14.4 41 8.9 NE 30 39 16 21 1017.9 1016.4 0.0
25/10:30am 27.1 22.7 14.1 44 7.8 NE 30 41 16 22 1018.1 1016.6 0.0
25/10:00am 26.7 22.7 15.1 49 7.1 NE 30 39 16 21 1018.3 1016.8 0.0
25/09:30am 25.4 21.3 14.8 52 6.4 NE 30 41 16 22 1018.4 1016.9 0.0
25/09:00am 24.3 20.6 15.0 56 5.6 ENE 28 39 15 21 1018.4 1016.9 0.0
25/08:30am 23.0 20.1 15.1 61 4.8 ENE 24 35 13 19 1018.3 1016.8 0.0
25/08:00am 21.7 18.8 15.1 66 4.0 ENE 24 32 13 17 1018.1 1016.6 0.0
25/07:30am 20.6 17.6 14.9 70 3.4 ENE 24 35 13 19 1018.1 1016.6 0.0
25/07:00am 19.7 16.3 14.7 73 2.9 ENE 26 39 14 21 1017.8 1016.3 0.0
25/06:30am 19.8 16.7 14.6 72 3.1 ENE 24 35 13 19 1017.4 1015.9 0.0
25/06:00am 20.1 17.0 14.5 70 3.3 ENE 24 35 13 19 1017.0 1015.4 0.0
25/05:30am 20.1 16.6 14.5 70 3.3 ENE 26 35 14 19 1016.8 1015.2 0.0
25/05:00am 20.5 17.5 14.8 70 3.4 ENE 24 39 13 21 1016.8 1015.2 0.0
25/04:30am 20.6 17.0 15.2 71 3.2 ENE 28 35 15 19 1016.6 1015.0 0.0
25/04:00am 21.1 17.5 15.2 69 3.5 ENE 28 33 15 18 1016.7 1015.1 0.0
25/03:30am 21.6 19.1 15.2 67 3.8 ENE 22 32 12 17 1016.7 1015.1 0.0
25/03:00am 22.3 20.2 15.2 64 4.3 E 20 35 11 19 1016.6 1015.0 0.0
25/02:30am 22.5 20.8 14.6 61 4.7 E 17 26 9 14 1016.5 1014.9 0.0
25/02:00am 22.9 20.3 13.7 56 5.4 ENE 20 30 11 16 1016.4 1014.8 0.0
25/01:30am 23.4 20.6 13.3 53 5.9 ENE 20 32 11 17 1016.6 1015.0 0.0
25/01:00am 22.6 21.0 11.7 50 6.2 E 11 17 6 9 1016.8 1015.2 0.0
25/12:30am 22.3 20.0 11.7 51 6.0 SE 15 17 8 9 1016.9 1015.3 0.0
25/12:00am 22.0 19.8 12.0 53 5.7 SE 15 17 8 9 1017.0 1015.4 0.0
 
Date/Time
EDT
Temp
°C
App
Temp
°C
Dew
Point
°C
Rel
Hum
%
Delta-T
°C
Wind Press
QNH
hPa
Press
MSL
hPa
Rain since
9am
mm
Dir  Spd
km/h
Gust
km/h
Spd
kts
Gust
kts
24/11:30pm 22.8 20.0 11.5 49 6.4 ESE 17 19 9 10 1017.1 1015.6 0.0
24/11:00pm 22.4 20.4 11.5 50 6.2 ESE 13 15 7 8 1017.2 1015.7 0.0
24/10:30pm 23.6 21.5 11.0 45 7.1 E 13 15 7 8 1017.4 1015.9 0.0
24/10:00pm 25.2 23.2 11.4 42 7.9 E 13 17 7 9 1017.4 1015.9 0.0
24/09:30pm 26.7 24.0 11.6 39 8.7 NE 17 24 9 13 1017.1 1015.6 0.0
24/09:00pm 26.9 24.5 11.4 38 8.9 NE 15 22 8 12 1016.8 1015.2 0.0
24/08:30pm 27.9 25.1 11.5 36 9.5 NE 17 26 9 14 1016.3 1014.7 0.0
24/08:00pm 29.4 26.1 11.0 32 10.7 ENE 19 28 10 15 1015.5 1014.0 0.0
24/07:30pm 33.5 28.3 2.4 14 16.0 S 19 26 10 14 1014.7 1013.2 0.0
24/07:00pm 35.0 29.6 2.5 13 16.9 S 20 28 11 15 1014.4 1012.9 0.0
24/06:30pm 36.3 31.1 2.4 12 17.7 SSW 19 28 10 15 1014.3 1012.8 0.0
24/06:00pm 37.2 30.8 3.1 12 18.1 SW 26 39 14 21 1014.2 1012.7 0.0
24/05:30pm 36.9 30.4 2.8 12 18.0 SW 26 35 14 19 1014.2 1012.7 0.0
24/05:00pm 37.6 34.0 6.6 15 17.4 SSW 15 26 8 14 1014.2 1012.7 0.0
24/04:30pm 35.6 31.6 6.8 17 16.1 S 17 28 9 15 1014.3 1012.8 0.0
24/04:07pm 37.1 33.6 7.1 16 17.0 WSW 15 48 8 26 1014.0 1012.5 0.0
24/04:00pm 37.9 33.4 6.8 15 17.6 WSW 20 32 11 17 1014.5 1013.0 0.0
24/03:30pm 37.4 32.6 7.3 16 17.1 W 22 41 12 22 1014.8 1013.3 0.0
24/03:04pm 38.5 35.2 8.2 16 17.5 WSW 15 35 8 19 1015.1 1013.6 0.0
24/03:00pm 37.6 34.0 8.4 17 16.9 WSW 17 32 9 17 1015.2 1013.7 0.0
24/02:30pm 37.3 34.6 9.0 18 16.5 WNW 13 30 7 16 1015.7 1014.2 0.0
24/02:00pm 37.3 33.3 9.0 18 16.5 WNW 20 32 11 17 1016.3 1014.7 0.0
24/01:30pm 36.8 32.9 9.4 19 16.0 W 20 35 11 19 1016.9 1015.3 0.0
24/01:00pm 36.9 34.9 10.2 20 15.8 WNW 11 20 6 11 1017.2 1015.7 0.0
24/12:30pm 35.8 33.0 10.1 21 15.1 W 15 30 8 16 1017.8 1016.3 0.0
24/12:00pm 35.9 33.7 10.9 22 14.9 WNW 13 24 7 13 1018.2 1016.7 0.0
24/11:30am 33.8 31.1 10.4 24 13.7 W 15 20 8 11 1018.6 1017.1 0.0
24/11:00am 33.0 31.4 11.5 27 12.7 NW 11 17 6 9 1018.9 1017.4 0.0

Other Formats:

Comma delimited format used in spreadsheet applications
http://www.bom.gov.au/fwo/IDN60801/IDN60801.95719.axf

JavaScript Object Notation format (JSON) in row-major order
http://www.bom.gov.au/fwo/IDN60801/IDN60801.95719.json